Tucson International Airport
KTUS : now visible

Airfield :











YOU CAN JOIN US ON...

 
LOGIN :

Register | Disclaimer

   EN    FR    IT 

 









Legend :    VFR   Marginal VFR   IFR   Intensive IFR   Very Intensive IFR
Visi :
Ceiling :
>= 8 km
>= 3000ft
5 to 8 km
1000 to 3000 ft
1500m to 5 km
500 to 1000 ft
800 to 1500m
200 to 500 ft
< 800m
< 200 ft
Symbols :   Thunderstorms  Fog  Heavy snow  Heavy precipitations  Wind > 20 kt






- Airport Elevation : 2643 ft
- IATA code : TUS


KTUS - Tucson International

CURRENT METAR :
  • 250853Z AUTO 15005KT 10SM CLR 19/M03 A2988 RMK AO2 SLP077 T01941033 50001

EXPIRED METARs :
  • 250753Z AUTO VRB03KT 10SM CLR 22/M01 A2989 RMK AO2 SLP077 T02171006
  • 250653Z 27005KT 10SM CLR 22/M07 A2989 RMK AO2 SLP077 T02171072 403170161
  • 250553Z 26006KT 10SM CLR 23/M08 A2988 RMK AO2 SLP076 T02281083 10317 20228 51011

TAF KTUS
Valid from the 25 at 06:00 until the 26 at 06:00 UTC


250520Z 2506/2606 27006KT P6SM FEW250
FM250900 15006KT P6SM SKC
FM251500 VRB03KT P6SM FEW250
FM251900 32008KT P6SM FEW250
KZAB FIR / North America



MET'MAP, your aeronautical weather chart ! - Copyright ORBIFLY December 2007 - Disclaimer

ORBIFLY MET'MAP TEAM :

Programming & Development : Alexandra Zaïnal
Concept & original design : Baudouin d'Aumeries
Assistance for programming : Marc-Olivier Méhu
Technical & hardware support : Manuel Goepfert

Contact : metmap@orbifly.com




SOURCES & CREDITS :

   NOAA       Earth
Advisory